createdAt,value
2023-01-09T00:00:48.704Z,99392.47
2023-01-09T00:03:15.152Z,99388.84
2023-01-09T00:05:41.656Z,99382.03
2023-01-09T00:08:08.233Z,99376.06
2023-01-09T00:10:34.893Z,99366.44
2023-01-09T00:13:01.409Z,99362.28
2023-01-09T00:15:27.844Z,99349.31
2023-01-09T00:17:54.286Z,99351.97
2023-01-09T00:20:20.917Z,99352.13
2023-01-09T00:22:47.329Z,99367.19
2023-01-09T00:25:13.820Z,99348.47
2023-01-09T00:27:40.313Z,99349.16
2023-01-09T00:30:07.428Z,99347.22
2023-01-09T00:32:33.908Z,99354.84
2023-01-09T00:35:00.313Z,99351.03
2023-01-09T00:37:26.701Z,99340.97
2023-01-09T00:39:53.118Z,99342.50
2023-01-09T00:42:22.823Z,99351.97
2023-01-09T00:44:53.108Z,99335.91
2023-01-09T00:47:27.893Z,99352.94
2023-01-09T00:49:58.571Z,99342.63
2023-01-09T00:52:25.144Z,99345.97
2023-01-09T00:54:51.774Z,99343.63
2023-01-09T00:57:18.348Z,99345.50
2023-01-09T00:59:44.836Z,99340.84
2023-01-09T01:02:11.531Z,99335.41
2023-01-09T01:04:56.705Z,99341.78
2023-01-09T01:07:38.333Z,99335.03
2023-01-09T01:10:08.064Z,99322.94
2023-01-09T01:12:34.508Z,99326.66
2023-01-09T01:15:01.025Z,99327.81
2023-01-09T01:17:27.490Z,99322.06
2023-01-09T01:19:54.101Z,99327.22
2023-01-09T01:22:20.642Z,99333.03
2023-01-09T01:24:47.100Z,99322.44
2023-01-09T01:27:14.324Z,99322.59
2023-01-09T01:29:40.730Z,99313.78
2023-01-09T01:32:07.942Z,99316.44
2023-01-09T01:34:34.685Z,99303.78
2023-01-09T01:37:01.149Z,99312.28
2023-01-09T01:39:27.582Z,99304.47
2023-01-09T01:41:54.167Z,99313.25
2023-01-09T01:44:58.234Z,99314.78
2023-01-09T01:47:42.980Z,99314.25
2023-01-09T01:50:16.522Z,99307.28
2023-01-09T01:52:48.020Z,99305.78
2023-01-09T01:55:15.816Z,99292.50
2023-01-09T01:57:47.348Z,99297.81
2023-01-09T02:00:14.073Z,99284.88
2023-01-09T02:02:40.743Z,99284.56
2023-01-09T02:05:07.417Z,99280.06
2023-01-09T02:07:34.908Z,99278.25
2023-01-09T02:10:01.766Z,99271.81
2023-01-09T02:12:28.631Z,99261.66
2023-01-09T02:15:00.881Z,99274.97
2023-01-09T02:18:04.565Z,99283.31
2023-01-09T02:20:50.568Z,99285.78
2023-01-09T02:23:33.830Z,99276.19
2023-01-09T02:26:28.882Z,99268.75
2023-01-09T02:29:17.166Z,99266.97
2023-01-09T02:31:56.607Z,99264.81
2023-01-09T02:34:55.865Z,99263.16
2023-01-09T02:37:22.235Z,99266.34
2023-01-09T02:40:08.551Z,99248.59
2023-01-09T02:42:37.317Z,99250.97
2023-01-09T02:45:04.257Z,99253.13
2023-01-09T02:47:30.585Z,99252.63
2023-01-09T02:50:00.725Z,99240.03
2023-01-09T02:52:48.834Z,99246.34
2023-01-09T02:55:36.747Z,99247.69
2023-01-09T02:58:24.472Z,99253.50
2023-01-09T03:01:24.644Z,99252.00
2023-01-09T03:04:00.426Z,99245.53
2023-01-09T03:06:45.105Z,99250.53
2023-01-09T03:09:20.421Z,99251.38
2023-01-09T03:11:51.643Z,99255.34
2023-01-09T03:14:21.985Z,99250.56
2023-01-09T03:16:53.042Z,99248.72
2023-01-09T03:19:24.098Z,99251.56
2023-01-09T03:21:52.071Z,99239.91
2023-01-09T03:24:18.477Z,99253.53
2023-01-09T03:26:45.148Z,99251.56
2023-01-09T03:29:11.538Z,99246.75
2023-01-09T03:31:38.028Z,99239.25
2023-01-09T03:34:04.565Z,99244.75
2023-01-09T03:36:31.131Z,99248.53
2023-01-09T03:38:57.536Z,99248.25
2023-01-09T03:41:24.087Z,99245.06
2023-01-09T03:43:50.623Z,99245.72
2023-01-09T03:46:17.430Z,99263.34
2023-01-09T03:48:43.852Z,99244.75
2023-01-09T03:51:10.610Z,99253.03
2023-01-09T03:53:37.061Z,99239.41
2023-01-09T03:56:03.643Z,99257.69
2023-01-09T03:58:30.354Z,99242.88
2023-01-09T04:01:03.187Z,99254.31
2023-01-09T04:03:29.797Z,99248.66
2023-01-09T04:05:56.389Z,99249.66
2023-01-09T04:08:22.850Z,99249.00
2023-01-09T04:10:51.026Z,99242.34
2023-01-09T04:13:18.187Z,99237.69
2023-01-09T04:15:44.742Z,99234.38
2023-01-09T04:18:11.234Z,99228.50
2023-01-09T04:20:37.734Z,99234.16
2023-01-09T04:23:04.325Z,99221.88
2023-01-09T04:25:30.749Z,99228.16
2023-01-09T04:27:57.486Z,99223.84
2023-01-09T04:30:24.038Z,99223.97
2023-01-09T04:32:51.973Z,99226.81
2023-01-09T04:35:19.503Z,99218.47
2023-01-09T04:37:45.951Z,99223.31
2023-01-09T04:40:12.881Z,99218.63
2023-01-09T04:42:40.826Z,99196.06
2023-01-09T04:45:09.134Z,99208.66
2023-01-09T04:47:35.550Z,99206.81
2023-01-09T04:50:02.301Z,99218.31
2023-01-09T04:52:28.995Z,99215.63
2023-01-09T04:54:55.385Z,99211.94
2023-01-09T04:57:21.790Z,99205.00
2023-01-09T04:59:48.185Z,99211.78
2023-01-09T05:02:14.829Z,99198.19
2023-01-09T05:04:41.413Z,99210.31
2023-01-09T05:07:07.847Z,99212.59
2023-01-09T05:09:34.709Z,99215.94
2023-01-09T05:12:01.957Z,99223.75
2023-01-09T05:14:28.549Z,99223.91
2023-01-09T05:16:55.136Z,99213.59
2023-01-09T05:19:21.674Z,99217.09
2023-01-09T05:21:48.134Z,99221.25
2023-01-09T05:24:14.648Z,99220.31
2023-01-09T05:26:41.174Z,99230.13
2023-01-09T05:29:07.597Z,99230.13
2023-01-09T05:31:34.140Z,99226.34
2023-01-09T05:34:00.834Z,99228.00
2023-01-09T05:36:28.192Z,99236.66
2023-01-09T05:38:54.626Z,99230.69
2023-01-09T05:41:23.542Z,99235.50
2023-01-09T05:43:50.568Z,99230.88
2023-01-09T05:46:17.041Z,99227.56
2023-01-09T05:48:44.536Z,99228.38
2023-01-09T05:51:11.853Z,99230.56
2023-01-09T05:53:38.332Z,99232.38
2023-01-09T05:56:05.028Z,99239.53
2023-01-09T05:58:31.420Z,99230.06
2023-01-09T06:00:58.680Z,99235.53
2023-01-09T06:03:25.219Z,99238.53
2023-01-09T06:05:51.759Z,99237.53
2023-01-09T06:08:18.208Z,99238.53
2023-01-09T06:10:45.973Z,99234.38
2023-01-09T06:13:12.444Z,99239.03
2023-01-09T06:15:39.113Z,99244.69
2023-01-09T06:18:05.606Z,99252.50
2023-01-09T06:20:32.126Z,99255.16
2023-01-09T06:22:58.559Z,99246.34
2023-01-09T06:25:26.270Z,99260.47
2023-01-09T06:27:52.921Z,99250.84
2023-01-09T06:30:20.128Z,99256.00
2023-01-09T06:32:49.950Z,99261.13
2023-01-09T06:35:20.950Z,99262.97
2023-01-09T06:37:48.272Z,99265.63
2023-01-09T06:40:15.094Z,99243.19
2023-01-09T06:42:45.982Z,99249.00
2023-01-09T06:45:13.479Z,99268.28
2023-01-09T06:47:40.339Z,99261.63
2023-01-09T06:50:09.191Z,99260.66
2023-01-09T06:52:36.737Z,99250.50
2023-01-09T06:55:03.866Z,99252.69
2023-01-09T06:57:30.674Z,99260.47
2023-01-09T06:59:57.802Z,99246.88
2023-01-09T07:02:24.234Z,99266.78
2023-01-09T07:04:50.633Z,99271.94
2023-01-09T07:07:18.401Z,99274.59
2023-01-09T07:09:44.882Z,99271.31
2023-01-09T07:12:11.272Z,99278.94
2023-01-09T07:14:37.712Z,99282.28
2023-01-09T07:17:04.151Z,99291.59
2023-01-09T07:19:30.541Z,99295.41
2023-01-09T07:21:56.955Z,99298.38
2023-01-09T07:24:23.552Z,99322.66
2023-01-09T07:26:50.034Z,99319.16
2023-01-09T07:29:16.473Z,99323.81
2023-01-09T07:31:43.037Z,99310.38
2023-01-09T07:34:09.436Z,99325.66
2023-01-09T07:36:35.846Z,99327.50
2023-01-09T07:39:02.349Z,99325.66
2023-01-09T07:41:28.795Z,99316.50
2023-01-09T07:43:57.033Z,99317.34
2023-01-09T07:46:23.545Z,99329.81
2023-01-09T07:48:49.951Z,99334.28
2023-01-09T07:51:16.428Z,99341.78
2023-01-09T07:53:42.827Z,99356.75
2023-01-09T07:56:09.248Z,99359.06
2023-01-09T07:58:35.732Z,99359.41
2023-01-09T08:01:02.209Z,99355.91
2023-01-09T08:03:28.786Z,99370.03
2023-01-09T08:05:55.337Z,99373.38
2023-01-09T08:08:22.661Z,99371.69
2023-01-09T08:10:49.132Z,99371.34
2023-01-09T08:13:15.595Z,99382.50
2023-01-09T08:15:42.061Z,99389.97
2023-01-09T08:18:08.771Z,99391.31
2023-01-09T08:20:35.209Z,99394.59
2023-01-09T08:23:01.751Z,99390.97
2023-01-09T08:25:28.113Z,99394.28
2023-01-09T08:27:54.530Z,99393.78
2023-01-09T08:30:21.576Z,99393.63
2023-01-09T08:32:50.757Z,99401.59
2023-01-09T08:35:17.502Z,99394.78
2023-01-09T08:37:45.615Z,99395.28
2023-01-09T08:40:13.562Z,99404.91
2023-01-09T08:42:59.341Z,99404.56
2023-01-09T08:45:44.210Z,99411.88
2023-01-09T08:48:10.826Z,99408.69
2023-01-09T08:50:37.604Z,99396.56
2023-01-09T08:53:04.244Z,99406.03
2023-01-09T08:55:30.715Z,99405.38
2023-01-09T08:57:57.193Z,99396.50
2023-01-09T09:00:24.968Z,99412.66
2023-01-09T09:02:58.478Z,99414.94
2023-01-09T09:05:26.581Z,99413.78
2023-01-09T09:07:54.838Z,99430.44
2023-01-09T09:10:23.726Z,99426.78
2023-01-09T09:12:53.109Z,99428.44
2023-01-09T09:15:24.116Z,99443.41
2023-01-09T09:17:59.395Z,99443.91
2023-01-09T09:20:29.197Z,99444.56
2023-01-09T09:22:55.592Z,99439.91
2023-01-09T09:25:22.767Z,99450.91
2023-01-09T09:27:49.635Z,99463.38
2023-01-09T09:30:18.222Z,99447.09
2023-01-09T09:32:45.605Z,99436.28
2023-01-09T09:35:12.420Z,99450.06
2023-01-09T09:37:39.086Z,99455.75
2023-01-09T09:40:17.921Z,99457.41
2023-01-09T09:43:26.464Z,99452.94
2023-01-09T09:46:02.787Z,99469.72
2023-01-09T09:48:44.419Z,99466.88
2023-01-09T09:51:22.420Z,99479.69
2023-01-09T09:53:53.797Z,99469.22
2023-01-09T09:56:23.136Z,99477.19
2023-01-09T09:58:53.960Z,99479.00
2023-01-09T10:01:33.612Z,99489.69
2023-01-09T10:04:04.430Z,99484.69
2023-01-09T10:06:34.204Z,99481.88
2023-01-09T10:09:25.406Z,99483.88
2023-01-09T10:11:54.727Z,99489.19
2023-01-09T10:14:24.656Z,99487.03
2023-01-09T10:17:03.436Z,99498.34
2023-01-09T10:19:33.118Z,99491.84
2023-01-09T10:22:47.316Z,99496.00
2023-01-09T10:25:47.215Z,99495.00
2023-01-09T10:28:31.834Z,99496.16
2023-01-09T10:31:24.627Z,99496.00
2023-01-09T10:34:14.716Z,99503.97
2023-01-09T10:36:47.026Z,99497.47
2023-01-09T10:39:34.507Z,99502.78
2023-01-09T10:42:22.802Z,99503.09
2023-01-09T10:44:56.207Z,99508.09
2023-01-09T10:47:35.213Z,99507.09
2023-01-09T10:50:18.062Z,99509.91
2023-01-09T10:52:45.632Z,99504.75
2023-01-09T10:55:39.690Z,99509.75
2023-01-09T10:58:14.612Z,99506.94
2023-01-09T11:00:42.112Z,99510.75
2023-01-09T11:03:21.161Z,99513.09
2023-01-09T11:05:54.373Z,99509.91
2023-01-09T11:08:35.673Z,99517.88
2023-01-09T11:11:03.098Z,99504.06
2023-01-09T11:13:34.374Z,99510.06
2023-01-09T11:16:23.509Z,99512.75
2023-01-09T11:18:54.291Z,99517.78
2023-01-09T11:21:34.054Z,99513.97
2023-01-09T11:24:18.890Z,99512.34
2023-01-09T11:26:47.043Z,99513.53
2023-01-09T11:29:19.081Z,99505.22
2023-01-09T11:31:58.211Z,99515.41
2023-01-09T11:34:31.468Z,99515.06
2023-01-09T11:37:10.568Z,99507.75
2023-01-09T11:39:41.225Z,99507.41
2023-01-09T11:42:20.199Z,99509.38
2023-01-09T11:44:46.736Z,99506.53
2023-01-09T11:47:39.129Z,99517.34
2023-01-09T11:50:20.676Z,99519.84
2023-01-09T11:53:07.258Z,99526.00
2023-01-09T11:55:41.823Z,99525.78
2023-01-09T11:58:17.803Z,99524.50
2023-01-09T12:00:50.693Z,99530.13
2023-01-09T12:03:51.186Z,99524.28
2023-01-09T12:06:27.559Z,99528.78
2023-01-09T12:09:04.831Z,99515.97
2023-01-09T12:12:03.044Z,99521.81
2023-01-09T12:14:50.583Z,99526.78
2023-01-09T12:17:29.797Z,99524.63
2023-01-09T12:20:20.817Z,99530.31
2023-01-09T12:23:00.975Z,99533.66
2023-01-09T12:25:56.790Z,99529.31
2023-01-09T12:28:38.466Z,99528.66
2023-01-09T12:31:07.787Z,99528.81
2023-01-09T12:33:46.818Z,99522.66
2023-01-09T12:36:25.648Z,99534.16
2023-01-09T12:38:51.974Z,99527.31
2023-01-09T12:41:53.412Z,99521.00
2023-01-09T12:44:48.181Z,99532.00
2023-01-09T12:47:34.843Z,99534.00
2023-01-09T12:50:19.820Z,99526.31
2023-01-09T12:53:07.669Z,99521.19
2023-01-09T12:55:39.698Z,99526.69
2023-01-09T12:58:41.336Z,99524.53
2023-01-09T13:01:15.155Z,99523.53
2023-01-09T13:03:47.363Z,99528.19
2023-01-09T13:06:18.025Z,99528.38
2023-01-09T13:08:53.242Z,99516.75
2023-01-09T13:11:31.823Z,99522.38
2023-01-09T13:14:22.035Z,99527.69
2023-01-09T13:16:52.416Z,99528.03
2023-01-09T13:19:36.818Z,99542.53
2023-01-09T13:22:05.723Z,99532.34
2023-01-09T13:24:53.339Z,99532.03
2023-01-09T13:27:22.954Z,99535.84
2023-01-09T13:30:06.615Z,99546.69
2023-01-09T13:33:11.924Z,99546.19
2023-01-09T13:35:53.744Z,99547.84
2023-01-09T13:38:23.737Z,99547.34
2023-01-09T13:41:28.960Z,99547.66
2023-01-09T13:43:59.582Z,99550.34
2023-01-09T13:46:43.275Z,99551.00
2023-01-09T13:49:43.803Z,99542.34
2023-01-09T13:52:39.254Z,99549.50
2023-01-09T13:55:11.952Z,99550.66
2023-01-09T13:57:43.255Z,99554.50
2023-01-09T14:00:12.698Z,99557.00
2023-01-09T14:02:39.093Z,99561.50
2023-01-09T14:05:11.304Z,99560.66
2023-01-09T14:07:40.348Z,99567.66
2023-01-09T14:10:25.412Z,99557.16
2023-01-09T14:12:55.708Z,99568.47
2023-01-09T14:15:22.014Z,99578.63
2023-01-09T14:17:49.771Z,99579.63
2023-01-09T14:20:34.570Z,99587.97
2023-01-09T14:25:48.556Z,99598.78
2023-01-09T14:28:28.950Z,99601.59
2023-01-09T14:30:55.374Z,99596.63
2023-01-09T14:33:25.432Z,99609.13
2023-01-09T14:35:56.568Z,99604.63
2023-01-09T14:38:34.482Z,99613.78
2023-01-09T14:41:07.545Z,99614.28
2023-01-09T14:43:53.421Z,99619.44
2023-01-09T14:46:24.157Z,99610.78
2023-01-09T14:49:19.148Z,99617.59
2023-01-09T14:51:51.695Z,99620.41
2023-01-09T14:54:29.160Z,99625.56
2023-01-09T14:57:05.744Z,99625.22
2023-01-09T14:59:38.686Z,99636.56
2023-01-09T15:02:11.157Z,99620.53
2023-01-09T15:04:41.967Z,99630.22
2023-01-09T15:07:32.401Z,99641.03
2023-01-09T15:10:05.116Z,99642.84
2023-01-09T15:12:40.146Z,99645.16
2023-01-09T15:15:13.135Z,99651.44
2023-01-09T15:17:43.087Z,99641.78
2023-01-09T15:20:20.703Z,99643.25
2023-01-09T15:22:54.507Z,99632.53
2023-01-09T15:25:39.016Z,99648.19
2023-01-09T15:28:28.924Z,99667.34
2023-01-09T15:31:02.942Z,99652.28
2023-01-09T15:33:29.897Z,99658.38
2023-01-09T15:36:02.059Z,99646.66
2023-01-09T15:38:34.416Z,99669.00
2023-01-09T15:41:06.806Z,99668.16
2023-01-09T15:43:34.808Z,99679.63
2023-01-09T15:46:01.573Z,99686.09
2023-01-09T15:48:32.370Z,99685.09
2023-01-09T15:51:02.489Z,99690.56
2023-01-09T15:53:29.758Z,99670.78
2023-01-09T15:56:30.268Z,99682.81
2023-01-09T15:58:58.489Z,99689.28
2023-01-09T16:01:30.347Z,99694.28
2023-01-09T16:04:16.385Z,99698.47
2023-01-09T16:06:51.034Z,99701.75
2023-01-09T16:09:21.831Z,99714.22
2023-01-09T16:11:55.384Z,99714.75
2023-01-09T16:14:38.685Z,99723.25
2023-01-09T16:17:08.800Z,99731.25
2023-01-09T16:19:41.409Z,99727.44
2023-01-09T16:22:27.833Z,99736.78
2023-01-09T16:24:57.400Z,99735.09
2023-01-09T16:27:33.327Z,99746.41
2023-01-09T16:30:06.692Z,99745.41
2023-01-09T16:32:35.733Z,99744.56
2023-01-09T16:35:06.199Z,99743.75
2023-01-09T16:37:33.754Z,99750.56
2023-01-09T16:40:18.524Z,99749.28
2023-01-09T16:43:01.286Z,99758.25
2023-01-09T16:45:32.316Z,99764.25
2023-01-09T16:47:59.455Z,99767.75
2023-01-09T16:50:26.447Z,99773.75
2023-01-09T16:52:52.968Z,99770.25
2023-01-09T16:55:19.510Z,99773.25
2023-01-09T16:57:46.021Z,99778.44
2023-01-09T17:00:18.434Z,99780.09
2023-01-09T17:02:45.274Z,99784.28
2023-01-09T17:05:11.864Z,99785.09
2023-01-09T17:07:38.285Z,99783.13
2023-01-09T17:10:06.097Z,99789.13
2023-01-09T17:12:32.544Z,99794.31
2023-01-09T17:15:00.866Z,99800.47
2023-01-09T17:17:27.488Z,99797.66
2023-01-09T17:19:53.915Z,99802.13
2023-01-09T17:22:20.381Z,99811.63
2023-01-09T17:25:08.742Z,99817.09
2023-01-09T17:27:56.197Z,99808.97
2023-01-09T17:30:22.898Z,99810.56
2023-01-09T17:32:49.481Z,99817.25
2023-01-09T17:35:16.296Z,99823.44
2023-01-09T17:37:43.113Z,99833.91
2023-01-09T17:40:20.816Z,99831.06
2023-01-09T17:42:47.268Z,99840.22
2023-01-09T17:45:14.246Z,99839.38
2023-01-09T17:47:40.926Z,99845.69
2023-01-09T17:50:15.897Z,99843.34
2023-01-09T17:52:42.410Z,99844.50
2023-01-09T17:55:09.318Z,99848.13
2023-01-09T17:57:35.717Z,99849.78
2023-01-09T18:00:02.472Z,99860.72
2023-01-09T18:02:28.923Z,99869.38
2023-01-09T18:04:55.388Z,99876.53
2023-01-09T18:07:21.891Z,99876.53
2023-01-09T18:09:48.549Z,99876.81
2023-01-09T18:12:14.974Z,99891.66
2023-01-09T18:14:42.150Z,99884.81
2023-01-09T18:17:11.988Z,99900.47
2023-01-09T18:19:38.521Z,99900.63
2023-01-09T18:22:04.979Z,99905.94
2023-01-09T18:24:31.368Z,99911.56
2023-01-09T18:26:57.767Z,99918.84
2023-01-09T18:29:24.283Z,99920.00
2023-01-09T18:31:51.685Z,99921.97
2023-01-09T18:34:18.131Z,99926.31
2023-01-09T18:36:44.636Z,99930.97
2023-01-09T18:39:12.102Z,99932.41
2023-01-09T18:41:38.484Z,99937.56
2023-01-09T18:44:05.032Z,99945.00
2023-01-09T18:46:32.311Z,99931.31
2023-01-09T18:49:01.133Z,99953.28
2023-01-09T18:51:28.689Z,99951.91
2023-01-09T18:53:55.799Z,99967.88
2023-01-09T18:56:23.287Z,99960.91
2023-01-09T18:58:49.801Z,99967.06
2023-01-09T19:01:16.438Z,99977.84
2023-01-09T19:03:43.289Z,99984.16
2023-01-09T19:06:10.630Z,99982.47
2023-01-09T19:08:37.140Z,99995.78
2023-01-09T19:11:04.352Z,99993.13
2023-01-09T19:13:33.152Z,99995.91
2023-01-09T19:16:00.847Z,100008.53
2023-01-09T19:18:29.320Z,100013.16
2023-01-09T19:20:55.817Z,100011.47
2023-01-09T19:23:25.638Z,100021.81
2023-01-09T19:25:53.788Z,100020.16
2023-01-09T19:28:21.039Z,100019.16
2023-01-09T19:30:47.455Z,100026.84
2023-01-09T19:33:13.877Z,100020.00
2023-01-09T19:35:40.385Z,100020.97
2023-01-09T19:38:06.804Z,100034.69
2023-01-09T19:40:33.222Z,100043.19
2023-01-09T19:42:59.645Z,100039.84
2023-01-09T19:45:26.039Z,100040.22
2023-01-09T19:47:52.528Z,100037.56
2023-01-09T19:50:19.103Z,100056.03
2023-01-09T19:52:45.733Z,100065.84
2023-01-09T19:55:14.144Z,100065.84
2023-01-09T19:57:44.185Z,100066.53
2023-01-09T20:00:12.622Z,100069.88
2023-01-09T20:02:39.553Z,100077.88
2023-01-09T20:05:07.295Z,100086.53
2023-01-09T20:07:34.847Z,100083.88
2023-01-09T20:10:01.511Z,100078.84
2023-01-09T20:12:27.914Z,100091.03
2023-01-09T20:14:54.365Z,100102.50
2023-01-09T20:17:20.845Z,100108.66
2023-01-09T20:19:47.232Z,100118.31
2023-01-09T20:22:13.782Z,100120.97
2023-01-09T20:24:40.364Z,100123.09
2023-01-09T20:27:07.209Z,100123.63
2023-01-09T20:29:33.802Z,100128.13
2023-01-09T20:32:01.248Z,100123.94
2023-01-09T20:34:27.716Z,100137.78
2023-01-09T20:36:54.676Z,100133.72
2023-01-09T20:39:21.555Z,100137.06
2023-01-09T20:41:48.379Z,100149.78
2023-01-09T20:44:15.689Z,100147.94
2023-01-09T20:46:47.362Z,100155.78
2023-01-09T20:49:15.975Z,100150.63
2023-01-09T20:51:48.245Z,100166.00
2023-01-09T20:54:16.313Z,100169.66
2023-01-09T20:56:44.145Z,100165.84
2023-01-09T20:59:16.942Z,100172.16
2023-01-09T21:01:43.651Z,100172.44
2023-01-09T21:04:10.219Z,100186.00
2023-01-09T21:06:36.810Z,100186.84
2023-01-09T21:09:05.026Z,100177.47
2023-01-09T21:11:33.558Z,100180.84
2023-01-09T21:14:00.193Z,100184.47
2023-01-09T21:16:26.885Z,100178.06
2023-01-09T21:18:54.750Z,100188.13
2023-01-09T21:21:24.489Z,100198.06
2023-01-09T21:23:53.442Z,100202.97
2023-01-09T21:26:24.775Z,100212.91
2023-01-09T21:28:55.159Z,100212.06
2023-01-09T21:31:29.847Z,100219.91
2023-01-09T21:33:56.522Z,100225.50
2023-01-09T21:36:23.283Z,100236.72
2023-01-09T21:38:52.097Z,100234.19
2023-01-09T21:41:38.255Z,100235.03
2023-01-09T21:44:24.738Z,100233.22
2023-01-09T21:46:55.844Z,100240.34
2023-01-09T21:49:25.404Z,100256.31
2023-01-09T21:51:55.704Z,100253.25
2023-01-09T21:54:23.277Z,100260.34
2023-01-09T21:56:50.774Z,100258.38
2023-01-09T21:59:17.363Z,100258.44
2023-01-09T22:01:44.156Z,100278.84
2023-01-09T22:04:14.829Z,100285.00
2023-01-09T22:06:41.361Z,100286.69
2023-01-09T22:09:07.847Z,100287.28
2023-01-09T22:11:34.306Z,100286.44
2023-01-09T22:14:00.731Z,100289.94
2023-01-09T22:16:27.923Z,100313.16
2023-01-09T22:18:55.986Z,100313.16
2023-01-09T22:21:23.541Z,100310.63
2023-01-09T22:23:50.510Z,100310.63
2023-01-09T22:26:18.553Z,100316.78
2023-01-09T22:28:46.021Z,100319.59
2023-01-09T22:31:16.896Z,100319.06
2023-01-09T22:33:43.701Z,100325.50
2023-01-09T22:36:12.065Z,100333.06
2023-01-09T22:38:38.491Z,100336.16
2023-01-09T22:41:05.280Z,100341.75
2023-01-09T22:43:32.255Z,100352.13
2023-01-09T22:46:03.457Z,100351.00
2023-01-09T22:48:34.621Z,100347.50
2023-01-09T22:51:02.760Z,100358.84
2023-01-09T22:53:30.724Z,100367.66
2023-01-09T22:55:59.239Z,100369.63
2023-01-09T22:58:27.265Z,100376.63
2023-01-09T23:00:54.482Z,100390.91
2023-01-09T23:03:21.004Z,100384.75
2023-01-09T23:05:47.428Z,100389.22
2023-01-09T23:08:14.487Z,100394.41
2023-01-09T23:10:42.221Z,100392.72
2023-01-09T23:13:08.667Z,100393.69
2023-01-09T23:15:35.229Z,100400.84
2023-01-09T23:18:01.643Z,100400.00
2023-01-09T23:20:28.025Z,100409.66
2023-01-09T23:22:54.437Z,100413.31
2023-01-09T23:25:20.939Z,100428.28
2023-01-09T23:27:47.385Z,100431.78
2023-01-09T23:30:14.053Z,100426.91
2023-01-09T23:32:40.489Z,100432.38
2023-01-09T23:35:07.265Z,100440.91
2023-01-09T23:37:34.102Z,100442.56
2023-01-09T23:40:00.539Z,100444.56
2023-01-09T23:42:45.438Z,100442.16
2023-01-09T23:45:11.891Z,100450.84
2023-01-09T23:47:38.364Z,100448.34
2023-01-09T23:50:06.916Z,100467.78
2023-01-09T23:52:33.315Z,100461.91
2023-01-09T23:54:59.777Z,100462.63
2023-01-09T23:57:26.187Z,100467.78
2023-01-09T23:59:52.564Z,100474.81
